sensor_id;sensor_type;location;lat;lon;timestamp;pressure;altitude;pressure_sealevel;temperature;humidity
40982;BME280;26708;50.304;19.028;2024-03-07T00:00:22;98771.94;;;4.67;64.94
40982;BME280;26708;50.304;19.028;2024-03-07T00:02:28;98856.03;;;5.14;64.93
40982;BME280;26708;50.304;19.028;2024-03-07T00:04:33;98863.94;;;5.18;64.99
40982;BME280;26708;50.304;19.028;2024-03-07T00:06:38;98750.56;;;4.42;65.00
40982;BME280;26708;50.304;19.028;2024-03-07T00:08:43;98786.47;;;4.61;64.95
40982;BME280;26708;50.304;19.028;2024-03-07T00:10:48;98864.75;;;5.17;65.36
40982;BME280;26708;50.304;19.028;2024-03-07T00:12:53;98759.59;;;4.57;64.78
40982;BME280;26708;50.304;19.028;2024-03-07T00:15:01;98741.94;;;4.41;64.98
40982;BME280;26708;50.304;19.028;2024-03-07T00:17:06;98844.06;;;5.19;64.67
40982;BME280;26708;50.304;19.028;2024-03-07T00:19:12;98833.53;;;5.13;64.63
40982;BME280;26708;50.304;19.028;2024-03-07T00:21:18;98783.34;;;4.75;64.33
40982;BME280;26708;50.304;19.028;2024-03-07T00:23:23;98854.63;;;5.28;64.44
40982;BME280;26708;50.304;19.028;2024-03-07T00:25:28;98856.75;;;5.07;64.25
40982;BME280;26708;50.304;19.028;2024-03-07T00:27:33;98828.44;;;5.17;64.04
40982;BME280;26708;50.304;19.028;2024-03-07T00:29:38;98732.84;;;4.60;63.94
40982;BME280;26708;50.304;19.028;2024-03-07T00:31:45;98703.03;;;4.40;64.04
40982;BME280;26708;50.304;19.028;2024-03-07T00:33:51;98825.91;;;5.19;63.73
40982;BME280;26708;50.304;19.028;2024-03-07T00:35:55;98850.63;;;5.42;63.52
40982;BME280;26708;50.304;19.028;2024-03-07T00:38:01;98759.03;;;4.70;63.50
40982;BME280;26708;50.304;19.028;2024-03-07T00:40:08;98860.03;;;5.37;63.79
40982;BME280;26708;50.304;19.028;2024-03-07T00:42:13;98822.44;;;5.18;63.71
40982;BME280;26708;50.304;19.028;2024-03-07T00:44:15;98764.25;;;4.72;63.61
40982;BME280;26708;50.304;19.028;2024-03-07T00:46:21;98815.25;;;5.07;63.98
40982;BME280;26708;50.304;19.028;2024-03-07T00:48:26;98812.72;;;5.10;63.82
40982;BME280;26708;50.304;19.028;2024-03-07T00:50:32;98813.38;;;5.01;64.10
40982;BME280;26708;50.304;19.028;2024-03-07T00:52:38;98761.56;;;4.67;63.53
40982;BME280;26708;50.304;19.028;2024-03-07T00:54:44;98799.56;;;5.02;63.69
40982;BME280;26708;50.304;19.028;2024-03-07T00:56:48;98703.09;;;4.41;63.66
40982;BME280;26708;50.304;19.028;2024-03-07T00:59:00;98728.56;;;4.60;63.49
40982;BME280;26708;50.304;19.028;2024-03-07T01:01:07;98843.22;;;5.20;63.61
40982;BME280;26708;50.304;19.028;2024-03-07T01:03:13;98813.31;;;4.98;63.37
40982;BME280;26708;50.304;19.028;2024-03-07T01:05:22;98853.09;;;5.36;63.63
40982;BME280;26708;50.304;19.028;2024-03-07T01:07:27;98826.59;;;5.12;63.56
40982;BME280;26708;50.304;19.028;2024-03-07T01:09:33;98730.75;;;4.44;63.49
40982;BME280;26708;50.304;19.028;2024-03-07T01:11:39;98659.97;;;4.09;63.81
40982;BME280;26708;50.304;19.028;2024-03-07T01:13:44;98609.59;;;3.96;63.33
40982;BME280;26708;50.304;19.028;2024-03-07T01:15:50;98803.84;;;5.00;63.36
40982;BME280;26708;50.304;19.028;2024-03-07T01:17:56;98796.78;;;4.93;63.47
40982;BME280;26708;50.304;19.028;2024-03-07T01:20:01;98671.59;;;4.25;63.77
40982;BME280;26708;50.304;19.028;2024-03-07T01:22:08;98757.22;;;4.66;63.38
40982;BME280;26708;50.304;19.028;2024-03-07T01:24:14;98733.75;;;4.60;63.36
40982;BME280;26708;50.304;19.028;2024-03-07T01:26:21;98759.13;;;4.75;63.05
40982;BME280;26708;50.304;19.028;2024-03-07T01:28:23;98797.22;;;4.77;63.12
40982;BME280;26708;50.304;19.028;2024-03-07T01:30:32;98797.88;;;5.03;63.12
40982;BME280;26708;50.304;19.028;2024-03-07T01:32:36;98751.41;;;4.76;63.26
40982;BME280;26708;50.304;19.028;2024-03-07T01:34:38;98757.38;;;4.72;62.91
40982;BME280;26708;50.304;19.028;2024-03-07T01:36:44;98772.69;;;4.63;63.38
40982;BME280;26708;50.304;19.028;2024-03-07T01:38:49;98815.13;;;5.02;63.58
40982;BME280;26708;50.304;19.028;2024-03-07T01:40:53;98837.13;;;5.18;63.46
40982;BME280;26708;50.304;19.028;2024-03-07T01:42:56;98843.25;;;5.21;63.52
40982;BME280;26708;50.304;19.028;2024-03-07T01:45:01;98736.44;;;4.65;63.45
40982;BME280;26708;50.304;19.028;2024-03-07T01:47:06;98838.97;;;5.23;63.43
40982;BME280;26708;50.304;19.028;2024-03-07T01:49:13;98834.66;;;5.24;63.64
40982;BME280;26708;50.304;19.028;2024-03-07T01:51:17;98847.75;;;5.30;63.38
40982;BME280;26708;50.304;19.028;2024-03-07T01:53:25;98840.84;;;5.30;63.53
40982;BME280;26708;50.304;19.028;2024-03-07T01:55:34;98862.41;;;5.28;63.19
40982;BME280;26708;50.304;19.028;2024-03-07T01:57:38;98834.56;;;5.21;63.03
40982;BME280;26708;50.304;19.028;2024-03-07T01:59:43;98697.00;;;4.41;63.47
40982;BME280;26708;50.304;19.028;2024-03-07T02:01:50;98837.25;;;5.24;63.70
40982;BME280;26708;50.304;19.028;2024-03-07T02:03:54;98830.38;;;5.26;63.00
40982;BME280;26708;50.304;19.028;2024-03-07T02:05:59;98711.72;;;4.42;62.82
40982;BME280;26708;50.304;19.028;2024-03-07T02:08:05;98823.25;;;5.16;62.73
40982;BME280;26708;50.304;19.028;2024-03-07T02:10:10;98796.38;;;4.78;62.92
40982;BME280;26708;50.304;19.028;2024-03-07T02:12:17;98834.53;;;5.18;63.23
40982;BME280;26708;50.304;19.028;2024-03-07T02:14:22;98837.19;;;5.21;62.77
40982;BME280;26708;50.304;19.028;2024-03-07T02:16:27;98734.84;;;4.71;62.78
40982;BME280;26708;50.304;19.028;2024-03-07T02:18:33;98804.84;;;5.05;62.99
40982;BME280;26708;50.304;19.028;2024-03-07T02:20:45;98817.97;;;5.11;63.14
40982;BME280;26708;50.304;19.028;2024-03-07T02:22:50;98832.78;;;5.17;62.94
40982;BME280;26708;50.304;19.028;2024-03-07T02:24:54;98689.13;;;4.36;63.21
40982;BME280;26708;50.304;19.028;2024-03-07T02:27:00;98640.00;;;4.04;62.81
40982;BME280;26708;50.304;19.028;2024-03-07T02:29:05;98739.84;;;4.62;63.17
40982;BME280;26708;50.304;19.028;2024-03-07T02:31:10;98667.16;;;4.21;63.11
40982;BME280;26708;50.304;19.028;2024-03-07T02:33:16;98786.09;;;4.83;63.34
40982;BME280;26708;50.304;19.028;2024-03-07T02:35:21;98809.88;;;4.99;63.06
40982;BME280;26708;50.304;19.028;2024-03-07T02:37:28;98805.78;;;5.09;62.93
40982;BME280;26708;50.304;19.028;2024-03-07T02:39:31;98711.75;;;4.43;62.50
40982;BME280;26708;50.304;19.028;2024-03-07T02:41:37;98742.91;;;4.46;62.69
40982;BME280;26708;50.304;19.028;2024-03-07T02:43:42;98833.13;;;4.95;62.73
40982;BME280;26708;50.304;19.028;2024-03-07T02:45:48;98730.53;;;4.35;62.78
40982;BME280;26708;50.304;19.028;2024-03-07T02:47:52;98754.41;;;4.57;62.78
40982;BME280;26708;50.304;19.028;2024-03-07T02:52:16;98698.47;;;3.96;62.58
40982;BME280;26708;50.304;19.028;2024-03-07T02:54:24;98793.50;;;4.66;62.53
40982;BME280;26708;50.304;19.028;2024-03-07T02:56:31;98731.03;;;4.20;62.62
40982;BME280;26708;50.304;19.028;2024-03-07T02:58:37;98790.94;;;4.68;62.37
40982;BME280;26708;50.304;19.028;2024-03-07T03:00:42;98677.34;;;4.13;62.49
40982;BME280;26708;50.304;19.028;2024-03-07T03:02:44;98796.91;;;4.64;62.64
40982;BME280;26708;50.304;19.028;2024-03-07T03:04:50;98801.00;;;4.90;62.52
40982;BME280;26708;50.304;19.028;2024-03-07T03:06:55;98831.47;;;4.98;62.33
40982;BME280;26708;50.304;19.028;2024-03-07T03:09:00;98774.38;;;4.61;62.49
40982;BME280;26708;50.304;19.028;2024-03-07T03:11:09;98830.22;;;4.84;62.72
40982;BME280;26708;50.304;19.028;2024-03-07T03:13:15;98819.25;;;4.60;62.81
40982;BME280;26708;50.304;19.028;2024-03-07T03:15:19;98761.22;;;4.20;62.90
40982;BME280;26708;50.304;19.028;2024-03-07T03:17:25;98829.91;;;4.71;63.22
40982;BME280;26708;50.304;19.028;2024-03-07T03:19:30;98656.38;;;3.69;63.02
40982;BME280;26708;50.304;19.028;2024-03-07T03:21:34;98807.72;;;4.48;63.28
40982;BME280;26708;50.304;19.028;2024-03-07T03:23:40;98702.75;;;3.94;62.77
40982;BME280;26708;50.304;19.028;2024-03-07T03:25:45;98776.47;;;4.42;62.53
40982;BME280;26708;50.304;19.028;2024-03-07T03:27:52;98833.25;;;4.67;62.42
40982;BME280;26708;50.304;19.028;2024-03-07T03:29:58;98817.56;;;4.61;62.47
40982;BME280;26708;50.304;19.028;2024-03-07T03:32:01;98815.78;;;4.60;62.52
40982;BME280;26708;50.304;19.028;2024-03-07T03:34:06;98785.03;;;4.39;62.48
40982;BME280;26708;50.304;19.028;2024-03-07T03:36:11;98703.66;;;3.96;62.34
40982;BME280;26708;50.304;19.028;2024-03-07T03:38:17;98748.06;;;4.11;61.93
40982;BME280;26708;50.304;19.028;2024-03-07T03:40:22;98838.31;;;4.62;62.10
40982;BME280;26708;50.304;19.028;2024-03-07T03:42:28;98860.78;;;4.63;61.92
40982;BME280;26708;50.304;19.028;2024-03-07T03:44:35;98681.25;;;3.64;62.00
40982;BME280;26708;50.304;19.028;2024-03-07T03:46:40;98828.78;;;4.61;61.64
40982;BME280;26708;50.304;19.028;2024-03-07T03:48:46;98797.03;;;4.36;61.45
40982;BME280;26708;50.304;19.028;2024-03-07T03:50:48;98796.81;;;4.27;61.81
40982;BME280;26708;50.304;19.028;2024-03-07T03:52:53;98696.53;;;3.55;61.53
40982;BME280;26708;50.304;19.028;2024-03-07T03:54:56;98772.47;;;3.88;61.83
40982;BME280;26708;50.304;19.028;2024-03-07T03:57:01;98837.91;;;4.46;62.13
40982;BME280;26708;50.304;19.028;2024-03-07T03:59:08;98769.28;;;3.98;62.09
40982;BME280;26708;50.304;19.028;2024-03-07T04:01:16;98812.44;;;4.30;61.66
40982;BME280;26708;50.304;19.028;2024-03-07T04:03:20;98848.97;;;4.40;61.52
40982;BME280;26708;50.304;19.028;2024-03-07T04:05:25;98645.72;;;3.26;61.94
40982;BME280;26708;50.304;19.028;2024-03-07T04:07:30;98843.72;;;4.37;61.98
40982;BME280;26708;50.304;19.028;2024-03-07T04:09:36;98842.94;;;4.40;61.71
40982;BME280;26708;50.304;19.028;2024-03-07T04:11:41;98816.50;;;4.20;61.71
40982;BME280;26708;50.304;19.028;2024-03-07T04:13:49;98819.31;;;4.29;61.77
40982;BME280;26708;50.304;19.028;2024-03-07T04:15:54;98836.44;;;4.23;61.43
40982;BME280;26708;50.304;19.028;2024-03-07T04:18:01;98845.09;;;4.25;61.32
40982;BME280;26708;50.304;19.028;2024-03-07T04:20:08;98787.16;;;3.89;61.66
40982;BME280;26708;50.304;19.028;2024-03-07T04:22:14;98739.66;;;3.56;61.87
40982;BME280;26708;50.304;19.028;2024-03-07T04:24:20;98666.22;;;3.20;61.75
40982;BME280;26708;50.304;19.028;2024-03-07T04:26:26;98724.81;;;3.49;61.50
40982;BME280;26708;50.304;19.028;2024-03-07T04:28:30;98780.41;;;3.94;61.64
40982;BME280;26708;50.304;19.028;2024-03-07T04:30:35;98783.59;;;3.86;61.37
40982;BME280;26708;50.304;19.028;2024-03-07T04:32:41;98847.41;;;4.14;61.46
40982;BME280;26708;50.304;19.028;2024-03-07T04:34:48;98792.97;;;3.81;61.96
40982;BME280;26708;50.304;19.028;2024-03-07T04:36:54;98812.19;;;3.90;61.74
40982;BME280;26708;50.304;19.028;2024-03-07T04:39:00;98736.91;;;3.50;61.34
40982;BME280;26708;50.304;19.028;2024-03-07T04:41:06;98850.97;;;4.18;61.66
40982;BME280;26708;50.304;19.028;2024-03-07T04:43:10;98854.44;;;4.18;61.81
40982;BME280;26708;50.304;19.028;2024-03-07T04:45:18;98827.19;;;4.01;61.58
40982;BME280;26708;50.304;19.028;2024-03-07T04:47:23;98847.41;;;4.14;61.90
40982;BME280;26708;50.304;19.028;2024-03-07T04:49:29;98848.06;;;4.07;61.86
40982;BME280;26708;50.304;19.028;2024-03-07T04:51:38;98853.91;;;3.99;61.69
40982;BME280;26708;50.304;19.028;2024-03-07T04:53:43;98856.38;;;3.96;62.02
40982;BME280;26708;50.304;19.028;2024-03-07T04:55:47;98829.09;;;3.76;61.87
40982;BME280;26708;50.304;19.028;2024-03-07T04:57:53;98868.28;;;3.90;62.00
40982;BME280;26708;50.304;19.028;2024-03-07T04:59:59;98849.78;;;3.76;62.01
40982;BME280;26708;50.304;19.028;2024-03-07T05:02:01;98868.09;;;3.84;62.05
40982;BME280;26708;50.304;19.028;2024-03-07T05:04:07;98848.72;;;3.70;61.96
40982;BME280;26708;50.304;19.028;2024-03-07T05:06:13;98862.97;;;3.85;62.30
40982;BME280;26708;50.304;19.028;2024-03-07T05:08:20;98863.75;;;3.83;61.92
40982;BME280;26708;50.304;19.028;2024-03-07T05:10:25;98864.84;;;3.91;61.76
40982;BME280;26708;50.304;19.028;2024-03-07T05:12:31;98869.25;;;3.93;61.86
40982;BME280;26708;50.304;19.028;2024-03-07T05:14:37;98848.41;;;3.89;61.85
40982;BME280;26708;50.304;19.028;2024-03-07T05:16:43;98729.13;;;3.19;61.48
40982;BME280;26708;50.304;19.028;2024-03-07T05:19:03;98728.91;;;3.12;61.49
40982;BME280;26708;50.304;19.028;2024-03-07T05:21:09;98756.31;;;3.07;61.45
40982;BME280;26708;50.304;19.028;2024-03-07T05:23:29;98847.44;;;3.56;61.69
40982;BME280;26708;50.304;19.028;2024-03-07T05:25:34;98880.31;;;3.88;61.62
40982;BME280;26708;50.304;19.028;2024-03-07T05:27:43;98825.38;;;3.39;61.79
40982;BME280;26708;50.304;19.028;2024-03-07T05:30:07;98883.88;;;3.92;61.69
40982;BME280;26708;50.304;19.028;2024-03-07T05:32:25;98837.44;;;3.68;61.69
40982;BME280;26708;50.304;19.028;2024-03-07T05:34:32;98887.31;;;3.92;61.79
40982;BME280;26708;50.304;19.028;2024-03-07T05:36:42;98870.69;;;3.84;61.57
40982;BME280;26708;50.304;19.028;2024-03-07T05:38:51;98884.84;;;3.95;61.61
40982;BME280;26708;50.304;19.028;2024-03-07T05:40:55;98852.31;;;3.75;61.52
40982;BME280;26708;50.304;19.028;2024-03-07T05:43:00;98897.06;;;4.00;61.43
40982;BME280;26708;50.304;19.028;2024-03-07T05:45:06;98902.13;;;3.97;61.28
40982;BME280;26708;50.304;19.028;2024-03-07T05:47:09;98886.47;;;3.92;61.60
40982;BME280;26708;50.304;19.028;2024-03-07T05:49:14;98892.50;;;3.92;60.74
40982;BME280;26708;50.304;19.028;2024-03-07T05:51:22;98899.41;;;3.91;60.74
40982;BME280;26708;50.304;19.028;2024-03-07T05:53:24;98841.34;;;3.54;60.25
40982;BME280;26708;50.304;19.028;2024-03-07T05:55:33;98884.16;;;3.72;60.42
40982;BME280;26708;50.304;19.028;2024-03-07T05:57:40;98760.13;;;2.90;60.45
40982;BME280;26708;50.304;19.028;2024-03-07T05:59:55;98902.38;;;3.75;60.67
40982;BME280;26708;50.304;19.028;2024-03-07T06:02:01;98892.09;;;3.78;60.92
40982;BME280;26708;50.304;19.028;2024-03-07T06:04:07;98870.16;;;3.66;60.66
40982;BME280;26708;50.304;19.028;2024-03-07T06:06:14;98899.34;;;3.90;60.53
40982;BME280;26708;50.304;19.028;2024-03-07T06:08:20;98717.88;;;2.89;60.08
40982;BME280;26708;50.304;19.028;2024-03-07T06:10:27;98865.31;;;3.76;60.58
40982;BME280;26708;50.304;19.028;2024-03-07T06:12:34;98885.06;;;3.74;60.52
40982;BME280;26708;50.304;19.028;2024-03-07T06:14:41;98892.63;;;3.96;60.33
40982;BME280;26708;50.304;19.028;2024-03-07T06:16:47;98745.13;;;3.06;59.93
40982;BME280;26708;50.304;19.028;2024-03-07T06:18:53;98740.75;;;3.04;59.92
40982;BME280;26708;50.304;19.028;2024-03-07T06:20:57;98879.28;;;3.83;60.17
40982;BME280;26708;50.304;19.028;2024-03-07T06:23:03;98902.84;;;3.92;60.25
40982;BME280;26708;50.304;19.028;2024-03-07T06:25:09;98872.13;;;3.74;60.33
40982;BME280;26708;50.304;19.028;2024-03-07T06:27:20;98765.97;;;3.12;60.52
40982;BME280;26708;50.304;19.028;2024-03-07T06:29:42;98911.63;;;3.97;60.71
40982;BME280;26708;50.304;19.028;2024-03-07T06:31:47;98760.50;;;3.02;60.55
40982;BME280;26708;50.304;19.028;2024-03-07T06:33:52;98770.53;;;3.21;60.38
40982;BME280;26708;50.304;19.028;2024-03-07T06:35:57;98773.19;;;3.24;60.38
40982;BME280;26708;50.304;19.028;2024-03-07T06:38:02;98818.81;;;3.50;60.44
40982;BME280;26708;50.304;19.028;2024-03-07T06:40:06;98734.34;;;2.93;59.91
40982;BME280;26708;50.304;19.028;2024-03-07T06:42:16;98888.53;;;3.75;60.18
40982;BME280;26708;50.304;19.028;2024-03-07T06:44:22;98898.19;;;3.80;59.93
40982;BME280;26708;50.304;19.028;2024-03-07T06:46:30;98875.47;;;3.70;60.15
40982;BME280;26708;50.304;19.028;2024-03-07T06:48:36;98916.81;;;3.97;59.89
40982;BME280;26708;50.304;19.028;2024-03-07T06:50:41;98877.16;;;3.68;60.02
40982;BME280;26708;50.304;19.028;2024-03-07T06:52:48;98927.19;;;3.98;60.20
40982;BME280;26708;50.304;19.028;2024-03-07T06:54:51;98844.03;;;3.57;59.83
40982;BME280;26708;50.304;19.028;2024-03-07T06:56:55;98916.28;;;4.08;59.77
40982;BME280;26708;50.304;19.028;2024-03-07T06:59:00;98795.31;;;3.42;59.71
40982;BME280;26708;50.304;19.028;2024-03-07T07:01:07;98736.41;;;3.03;59.67
40982;BME280;26708;50.304;19.028;2024-03-07T07:03:16;98847.84;;;3.69;59.42
40982;BME280;26708;50.304;19.028;2024-03-07T07:05:21;98896.72;;;4.19;59.59
40982;BME280;26708;50.304;19.028;2024-03-07T07:07:27;98907.44;;;4.31;59.45
40982;BME280;26708;50.304;19.028;2024-03-07T07:09:31;98916.00;;;4.28;58.94
40982;BME280;26708;50.304;19.028;2024-03-07T07:11:36;98916.72;;;4.23;59.21
40982;BME280;26708;50.304;19.028;2024-03-07T07:13:42;98915.03;;;4.25;59.33
40982;BME280;26708;50.304;19.028;2024-03-07T07:15:48;98923.53;;;4.21;58.90
40982;BME280;26708;50.304;19.028;2024-03-07T07:17:54;98917.38;;;4.16;59.44
40982;BME280;26708;50.304;19.028;2024-03-07T07:20:05;98867.25;;;3.83;59.26
40982;BME280;26708;50.304;19.028;2024-03-07T07:22:13;98884.72;;;3.92;59.35
40982;BME280;26708;50.304;19.028;2024-03-07T07:24:21;98927.59;;;4.11;59.26
40982;BME280;26708;50.304;19.028;2024-03-07T07:26:32;98921.34;;;4.05;59.44
40982;BME280;26708;50.304;19.028;2024-03-07T07:28:37;98914.53;;;4.07;59.78
40982;BME280;26708;50.304;19.028;2024-03-07T07:30:38;98822.44;;;3.56;60.13
40982;BME280;26708;50.304;19.028;2024-03-07T07:32:45;98863.81;;;3.84;60.13
40982;BME280;26708;50.304;19.028;2024-03-07T07:34:48;98853.97;;;4.02;59.61
40982;BME280;26708;50.304;19.028;2024-03-07T07:36:56;98830.19;;;3.86;59.49
40982;BME280;26708;50.304;19.028;2024-03-07T07:39:01;98789.84;;;3.63;58.89
40982;BME280;26708;50.304;19.028;2024-03-07T07:41:06;98880.16;;;4.12;58.96
40982;BME280;26708;50.304;19.028;2024-03-07T07:43:12;98810.31;;;3.54;59.19
40982;BME280;26708;50.304;19.028;2024-03-07T07:45:22;98776.16;;;3.36;59.24
40982;BME280;26708;50.304;19.028;2024-03-07T07:47:27;98831.88;;;3.54;59.18
40982;BME280;26708;50.304;19.028;2024-03-07T07:49:29;98925.88;;;4.12;59.45
40982;BME280;26708;50.304;19.028;2024-03-07T07:51:34;98915.75;;;4.19;59.88
40982;BME280;26708;50.304;19.028;2024-03-07T07:53:42;98895.47;;;4.05;59.88
40982;BME280;26708;50.304;19.028;2024-03-07T07:55:47;98914.44;;;4.33;59.89
40982;BME280;26708;50.304;19.028;2024-03-07T07:57:55;98753.75;;;3.36;59.58
40982;BME280;26708;50.304;19.028;2024-03-07T08:00:01;98917.13;;;4.38;59.25
40982;BME280;26708;50.304;19.028;2024-03-07T08:02:13;98923.16;;;4.37;59.58
40982;BME280;26708;50.304;19.028;2024-03-07T08:04:19;98890.66;;;4.17;59.50
40982;BME280;26708;50.304;19.028;2024-03-07T08:06:26;98805.75;;;3.45;59.29
40982;BME280;26708;50.304;19.028;2024-03-07T08:08:29;98878.84;;;3.97;59.38
40982;BME280;26708;50.304;19.028;2024-03-07T08:10:40;98773.19;;;3.24;59.89
40982;BME280;26708;50.304;19.028;2024-03-07T08:12:47;98916.47;;;4.14;59.80
40982;BME280;26708;50.304;19.028;2024-03-07T08:14:49;98924.34;;;4.18;59.71
40982;BME280;26708;50.304;19.028;2024-03-07T08:16:56;98920.94;;;4.19;59.86
40982;BME280;26708;50.304;19.028;2024-03-07T08:19:01;98790.56;;;3.28;59.63
40982;BME280;26708;50.304;19.028;2024-03-07T08:21:07;98907.69;;;4.09;59.93
40982;BME280;26708;50.304;19.028;2024-03-07T08:23:16;98919.19;;;4.20;60.13
40982;BME280;26708;50.304;19.028;2024-03-07T08:25:21;98882.66;;;4.09;60.06
40982;BME280;26708;50.304;19.028;2024-03-07T08:27:27;98850.13;;;3.88;59.60
40982;BME280;26708;50.304;19.028;2024-03-07T08:29:32;98854.03;;;4.03;59.66
40982;BME280;26708;50.304;19.028;2024-03-07T08:31:34;98920.88;;;4.49;59.33
40982;BME280;26708;50.304;19.028;2024-03-07T08:33:41;98921.84;;;4.52;59.45
40982;BME280;26708;50.304;19.028;2024-03-07T08:35:47;98917.44;;;4.50;58.89
40982;BME280;26708;50.304;19.028;2024-03-07T08:37:55;98888.00;;;4.15;58.76
40982;BME280;26708;50.304;19.028;2024-03-07T08:39:59;98929.56;;;4.51;58.68
40982;BME280;26708;50.304;19.028;2024-03-07T08:42:03;98763.56;;;3.48;59.12
40982;BME280;26708;50.304;19.028;2024-03-07T08:44:11;98900.81;;;4.42;59.08
40982;BME280;26708;50.304;19.028;2024-03-07T08:46:15;98911.25;;;4.43;58.71
40982;BME280;26708;50.304;19.028;2024-03-07T08:48:21;98843.38;;;3.93;59.16
40982;BME280;26708;50.304;19.028;2024-03-07T08:50:24;98794.59;;;3.77;58.94
40982;BME280;26708;50.304;19.028;2024-03-07T08:52:29;98911.97;;;4.38;58.65
40982;BME280;26708;50.304;19.028;2024-03-07T08:54:36;98942.75;;;4.60;58.77
40982;BME280;26708;50.304;19.028;2024-03-07T08:56:40;98816.16;;;3.78;58.65
40982;BME280;26708;50.304;19.028;2024-03-07T08:58:48;98939.63;;;4.71;58.80
40982;BME280;26708;50.304;19.028;2024-03-07T09:00:53;98945.81;;;4.76;58.42
40982;BME280;26708;50.304;19.028;2024-03-07T09:03:00;98946.72;;;4.77;57.71
40982;BME280;26708;50.304;19.028;2024-03-07T09:05:08;98945.75;;;4.75;57.89
40982;BME280;26708;50.304;19.028;2024-03-07T09:07:12;98939.84;;;4.79;58.03
40982;BME280;26708;50.304;19.028;2024-03-07T09:09:18;98768.00;;;3.83;58.32
40982;BME280;26708;50.304;19.028;2024-03-07T09:11:24;98877.91;;;4.57;57.70
40982;BME280;26708;50.304;19.028;2024-03-07T09:13:30;98741.16;;;3.79;57.59
40982;BME280;26708;50.304;19.028;2024-03-07T09:15:38;98828.72;;;4.26;57.02
40982;BME280;26708;50.304;19.028;2024-03-07T09:17:45;98873.06;;;4.36;57.06
40982;BME280;26708;50.304;19.028;2024-03-07T09:19:53;98824.28;;;4.20;56.70
40982;BME280;26708;50.304;19.028;2024-03-07T09:21:58;98780.66;;;3.72;56.73
40982;BME280;26708;50.304;19.028;2024-03-07T09:24:04;98908.22;;;4.59;56.76
40982;BME280;26708;50.304;19.028;2024-03-07T09:26:11;98900.09;;;4.47;56.96
40982;BME280;26708;50.304;19.028;2024-03-07T09:28:16;98944.72;;;4.68;56.92
40982;BME280;26708;50.304;19.028;2024-03-07T09:30:21;98954.31;;;4.71;57.09
40982;BME280;26708;50.304;19.028;2024-03-07T09:32:28;98916.88;;;4.29;56.94
40982;BME280;26708;50.304;19.028;2024-03-07T09:34:37;98804.97;;;3.77;57.01
40982;BME280;26708;50.304;19.028;2024-03-07T09:36:42;98862.47;;;3.98;57.45
40982;BME280;26708;50.304;19.028;2024-03-07T09:38:48;98960.03;;;4.59;57.62
40982;BME280;26708;50.304;19.028;2024-03-07T09:40:52;98958.31;;;4.60;57.59
40982;BME280;26708;50.304;19.028;2024-03-07T09:43:00;98877.16;;;3.98;57.34
40982;BME280;26708;50.304;19.028;2024-03-07T09:45:07;98976.22;;;4.51;57.56
40982;BME280;26708;50.304;19.028;2024-03-07T09:47:15;98831.22;;;3.91;57.95
40982;BME280;26708;50.304;19.028;2024-03-07T09:49:20;98974.16;;;4.70;57.75
40982;BME280;26708;50.304;19.028;2024-03-07T09:51:29;98966.59;;;4.78;57.67
40982;BME280;26708;50.304;19.028;2024-03-07T09:53:37;98882.38;;;4.30;57.70
40982;BME280;26708;50.304;19.028;2024-03-07T09:55:43;98961.69;;;4.88;57.65
40982;BME280;26708;50.304;19.028;2024-03-07T09:57:50;98968.00;;;4.98;57.32
40982;BME280;26708;50.304;19.028;2024-03-07T09:59:56;98973.13;;;4.95;56.76
40982;BME280;26708;50.304;19.028;2024-03-07T10:02:15;98886.75;;;4.32;57.21
40982;BME280;26708;50.304;19.028;2024-03-07T10:04:29;98971.56;;;5.00;56.72
40982;BME280;26708;50.304;19.028;2024-03-07T10:06:45;98977.31;;;4.90;56.42
40982;BME280;26708;50.304;19.028;2024-03-07T10:08:51;98985.81;;;4.86;56.75
40982;BME280;26708;50.304;19.028;2024-03-07T10:10:57;98970.09;;;4.80;56.94
40982;BME280;26708;50.304;19.028;2024-03-07T10:13:01;98978.09;;;4.87;57.16
40982;BME280;26708;50.304;19.028;2024-03-07T10:15:08;98906.78;;;4.38;57.19
40982;BME280;26708;50.304;19.028;2024-03-07T10:17:16;98931.72;;;4.67;56.93
40982;BME280;26708;50.304;19.028;2024-03-07T10:19:21;98962.25;;;4.77;56.80
40982;BME280;26708;50.304;19.028;2024-03-07T10:21:26;98980.34;;;4.75;57.09
40982;BME280;26708;50.304;19.028;2024-03-07T10:23:42;98979.19;;;4.64;57.14
40982;BME280;26708;50.304;19.028;2024-03-07T10:25:46;98979.75;;;4.54;57.45
40982;BME280;26708;50.304;19.028;2024-03-07T10:27:51;98976.97;;;4.47;57.42
40982;BME280;26708;50.304;19.028;2024-03-07T10:29:56;98930.31;;;4.16;57.83
40982;BME280;26708;50.304;19.028;2024-03-07T10:32:11;98897.22;;;3.77;57.71
40982;BME280;26708;50.304;19.028;2024-03-07T10:34:16;98984.66;;;4.44;57.88
40982;BME280;26708;50.304;19.028;2024-03-07T10:36:24;98984.69;;;4.45;57.81
40982;BME280;26708;50.304;19.028;2024-03-07T10:38:29;98986.06;;;4.33;57.92
40982;BME280;26708;50.304;19.028;2024-03-07T10:40:39;98956.94;;;4.12;58.07
40982;BME280;26708;50.304;19.028;2024-03-07T10:42:46;98975.78;;;4.36;58.08
40982;BME280;26708;50.304;19.028;2024-03-07T10:45:01;98960.09;;;4.30;57.77
40982;BME280;26708;50.304;19.028;2024-03-07T10:47:16;98879.94;;;3.76;57.92
40982;BME280;26708;50.304;19.028;2024-03-07T10:49:25;98987.22;;;4.44;58.07
40982;BME280;26708;50.304;19.028;2024-03-07T10:51:35;98993.38;;;4.47;58.35
40982;BME280;26708;50.304;19.028;2024-03-07T10:53:56;98984.78;;;4.48;57.85
40982;BME280;26708;50.304;19.028;2024-03-07T10:56:21;98823.06;;;3.48;57.85
40982;BME280;26708;50.304;19.028;2024-03-07T10:58:52;98984.22;;;4.60;58.59
40982;BME280;26708;50.304;19.028;2024-03-07T11:01:05;98935.28;;;4.39;58.10
40982;BME280;26708;50.304;19.028;2024-03-07T11:03:14;98862.13;;;3.86;57.97
40982;BME280;26708;50.304;19.028;2024-03-07T11:05:25;98972.50;;;4.72;57.59
40982;BME280;26708;50.304;19.028;2024-03-07T11:07:34;98954.31;;;4.71;57.60
40982;BME280;26708;50.304;19.028;2024-03-07T11:09:39;98822.34;;;3.83;57.06
40982;BME280;26708;50.304;19.028;2024-03-07T11:11:51;98863.59;;;4.06;57.10